Hauptseite
METAR-TAF:

METAR-TAF

Flughäfen :

Flugplatz Buochs

Buochs, Schweiz

Breite: 46-58-28N, Länge: 8-23-49E, Höhe: 449 m

Beobachtung

Neuester Wetterbericht von vor 33 Minuten, um 03:20 UTC
Wind 4 kt aus West/Südwest
Temperatur 14°C
Luftfeuchtigkeit 94%
Luftdruck 1021 hPa
Sichtweite 10 km oder mehr
keine Wolken unter 1500 m und keine Kumulonimbus oder Gewitterwolken

METAR: LSZC 190320Z AUTO 24004KT CAVOK 14/13 Q1021

Zeit: 05:53 (03:53 UTC)

Prognose

Neuester Wetterbericht von vor 13 Stunden und 28 Minuten, um 14:25 UTC
Gültige Prognose vom 18 um 15 UTC bis 18 um 24 UTC
Wind 3 kt aus unterschiedlichen Richtungen
Sichtweite 10 km oder mehr
Leicht bewölkt in der Höhe von 5000 ft
Wahrscheinlichkeit 40% :
Zeitweise
vom 18 um 15 UTC bis 18 um 19 UTC
Aufgelockert bewölkt in der Höhe von 5000 ft, Towering cumulus.
Regenschauer

TAF: LSZC 181425Z 1815/1824 VRB03KT 9999 FEW050 PROB40 TEMPO 1815/1819 SHRA SCT050TCU

Wetterbeobachtungen und Prognosen von mehr als 4000 Flughäfen (METAR und TAF Bericht).

Die verfügbaren Stationen werden durch gelbe und rote Markierungen auf der Karte dargestellt.

Führen Sie die Maus auf sie, um den Namen der Station zu sehen.

Darauf klicken, um die Beobachtung von Wetterbeobachtungen und Prognosen zu sehen.

Um die Karte zu ändern : klicken Sie auf den grünen Tasten mit einem schwarzen Kreuz Zum Vergrößern, auf den grünen Button mit einem Gedankenstrich zu verkleinern, oder auf die grünen Pfeile für benachbarte Karten.


METAR-TAF: